sensor_id;sensor_type;location;lat;lon;timestamp;P1;durP1;ratioP1;P2;durP2;ratioP2
51862;SDS011;37900;52.996;6.278;2022-09-09T00:01:16;7.78;;;4.38;;
51862;SDS011;37900;52.996;6.278;2022-09-09T00:09:35;6.85;;;4.65;;
51862;SDS011;37900;52.996;6.278;2022-09-09T00:12:11;7.30;;;4.72;;
51862;SDS011;37900;52.996;6.278;2022-09-09T00:22:38;7.75;;;4.38;;
51862;SDS011;37900;52.996;6.278;2022-09-09T00:25:12;7.22;;;4.68;;
51862;SDS011;37900;52.996;6.278;2022-09-09T00:27:47;6.28;;;4.38;;
51862;SDS011;37900;52.996;6.278;2022-09-09T00:30:18;6.72;;;4.82;;
51862;SDS011;37900;52.996;6.278;2022-09-09T00:33:01;8.25;;;4.97;;
51862;SDS011;37900;52.996;6.278;2022-09-09T00:35:37;7.35;;;4.05;;
51862;SDS011;37900;52.996;6.278;2022-09-09T00:38:47;7.13;;;4.53;;
51862;SDS011;37900;52.996;6.278;2022-09-09T00:41:18;7.10;;;4.55;;
51862;SDS011;37900;52.996;6.278;2022-09-09T00:44:12;6.18;;;4.53;;
51862;SDS011;37900;52.996;6.278;2022-09-09T00:52:28;8.77;;;4.28;;
51862;SDS011;37900;52.996;6.278;2022-09-09T00:57:51;6.28;;;3.90;;
51862;SDS011;37900;52.996;6.278;2022-09-09T01:08:24;8.80;;;4.18;;
51862;SDS011;37900;52.996;6.278;2022-09-09T01:11:01;5.25;;;4.13;;
51862;SDS011;37900;52.996;6.278;2022-09-09T01:13:29;7.95;;;4.18;;
51862;SDS011;37900;52.996;6.278;2022-09-09T01:16:00;6.65;;;4.07;;
51862;SDS011;37900;52.996;6.278;2022-09-09T01:18:32;7.18;;;4.47;;
51862;SDS011;37900;52.996;6.278;2022-09-09T01:24:27;5.72;;;3.63;;
51862;SDS011;37900;52.996;6.278;2022-09-09T01:27:05;7.70;;;3.92;;
51862;SDS011;37900;52.996;6.278;2022-09-09T01:32:02;6.97;;;3.95;;
51862;SDS011;37900;52.996;6.278;2022-09-09T01:34:48;6.43;;;4.38;;
51862;SDS011;37900;52.996;6.278;2022-09-09T01:37:16;8.13;;;4.05;;
51862;SDS011;37900;52.996;6.278;2022-09-09T01:39:42;6.57;;;3.90;;
51862;SDS011;37900;52.996;6.278;2022-09-09T01:42:11;5.90;;;4.05;;
51862;SDS011;37900;52.996;6.278;2022-09-09T01:44:39;6.85;;;3.72;;
51862;SDS011;37900;52.996;6.278;2022-09-09T01:47:05;5.53;;;3.33;;
51862;SDS011;37900;52.996;6.278;2022-09-09T01:49:32;5.88;;;4.00;;
51862;SDS011;37900;52.996;6.278;2022-09-09T01:51:58;4.68;;;3.72;;
51862;SDS011;37900;52.996;6.278;2022-09-09T01:54:25;6.47;;;3.92;;
51862;SDS011;37900;52.996;6.278;2022-09-09T01:57:01;5.95;;;3.92;;
51862;SDS011;37900;52.996;6.278;2022-09-09T02:02:39;5.47;;;3.58;;
51862;SDS011;37900;52.996;6.278;2022-09-09T02:07:48;6.93;;;4.18;;
51862;SDS011;37900;52.996;6.278;2022-09-09T02:10:21;8.82;;;3.53;;
51862;SDS011;37900;52.996;6.278;2022-09-09T02:13:12;6.10;;;3.60;;
51862;SDS011;37900;52.996;6.278;2022-09-09T02:20:47;5.15;;;3.75;;
51862;SDS011;37900;52.996;6.278;2022-09-09T02:23:13;6.15;;;3.50;;
51862;SDS011;37900;52.996;6.278;2022-09-09T02:25:40;4.68;;;3.47;;
51862;SDS011;37900;52.996;6.278;2022-09-09T02:28:07;5.80;;;3.50;;
51862;SDS011;37900;52.996;6.278;2022-09-09T02:30:35;5.30;;;3.45;;
51862;SDS011;37900;52.996;6.278;2022-09-09T02:33:04;4.88;;;3.40;;
51862;SDS011;37900;52.996;6.278;2022-09-09T02:35:32;6.38;;;3.78;;
51862;SDS011;37900;52.996;6.278;2022-09-09T02:38:03;4.82;;;3.53;;
51862;SDS011;37900;52.996;6.278;2022-09-09T02:40:34;6.55;;;3.88;;
51862;SDS011;37900;52.996;6.278;2022-09-09T02:42:59;6.75;;;3.78;;
51862;SDS011;37900;52.996;6.278;2022-09-09T02:45:27;6.00;;;3.28;;
51862;SDS011;37900;52.996;6.278;2022-09-09T02:53:31;5.82;;;3.60;;
51862;SDS011;37900;52.996;6.278;2022-09-09T02:56:05;7.00;;;3.90;;
51862;SDS011;37900;52.996;6.278;2022-09-09T02:58:36;4.05;;;3.17;;
51862;SDS011;37900;52.996;6.278;2022-09-09T03:01:04;5.60;;;3.70;;
51862;SDS011;37900;52.996;6.278;2022-09-09T03:03:30;5.25;;;3.47;;
51862;SDS011;37900;52.996;6.278;2022-09-09T03:05:56;5.23;;;3.23;;
51862;SDS011;37900;52.996;6.278;2022-09-09T03:08:22;4.30;;;3.15;;
51862;SDS011;37900;52.996;6.278;2022-09-09T03:10:48;5.03;;;3.17;;
51862;SDS011;37900;52.996;6.278;2022-09-09T03:13:14;6.07;;;3.38;;
51862;SDS011;37900;52.996;6.278;2022-09-09T03:15:40;5.18;;;3.20;;
51862;SDS011;37900;52.996;6.278;2022-09-09T03:18:06;5.10;;;3.30;;
51862;SDS011;37900;52.996;6.278;2022-09-09T03:20:32;5.03;;;3.08;;
51862;SDS011;37900;52.996;6.278;2022-09-09T03:22:59;3.72;;;2.90;;
51862;SDS011;37900;52.996;6.278;2022-09-09T03:25:25;3.75;;;2.88;;
51862;SDS011;37900;52.996;6.278;2022-09-09T03:27:51;5.45;;;3.15;;
51862;SDS011;37900;52.996;6.278;2022-09-09T03:30:23;4.93;;;3.03;;
51862;SDS011;37900;52.996;6.278;2022-09-09T03:32:50;5.32;;;3.47;;
51862;SDS011;37900;52.996;6.278;2022-09-09T03:35:17;5.17;;;2.97;;
51862;SDS011;37900;52.996;6.278;2022-09-09T03:37:43;4.83;;;3.33;;
51862;SDS011;37900;52.996;6.278;2022-09-09T03:40:09;5.82;;;3.10;;
51862;SDS011;37900;52.996;6.278;2022-09-09T03:42:36;4.05;;;2.90;;
51862;SDS011;37900;52.996;6.278;2022-09-09T03:45:03;6.37;;;3.70;;
51862;SDS011;37900;52.996;6.278;2022-09-09T03:47:30;5.07;;;3.03;;
51862;SDS011;37900;52.996;6.278;2022-09-09T03:49:55;5.55;;;3.13;;
51862;SDS011;37900;52.996;6.278;2022-09-09T03:52:21;5.07;;;3.35;;
51862;SDS011;37900;52.996;6.278;2022-09-09T03:54:50;4.60;;;3.25;;
51862;SDS011;37900;52.996;6.278;2022-09-09T03:57:16;3.23;;;2.63;;
51862;SDS011;37900;52.996;6.278;2022-09-09T03:59:42;5.00;;;3.08;;
51862;SDS011;37900;52.996;6.278;2022-09-09T04:02:08;3.67;;;3.08;;
51862;SDS011;37900;52.996;6.278;2022-09-09T04:04:35;5.63;;;2.85;;
51862;SDS011;37900;52.996;6.278;2022-09-09T04:07:00;6.25;;;3.20;;
51862;SDS011;37900;52.996;6.278;2022-09-09T04:09:26;4.25;;;2.88;;
51862;SDS011;37900;52.996;6.278;2022-09-09T04:11:52;3.80;;;2.80;;
51862;SDS011;37900;52.996;6.278;2022-09-09T04:14:19;3.42;;;2.70;;
51862;SDS011;37900;52.996;6.278;2022-09-09T04:16:45;4.38;;;2.60;;
51862;SDS011;37900;52.996;6.278;2022-09-09T04:19:11;3.80;;;2.80;;
51862;SDS011;37900;52.996;6.278;2022-09-09T04:21:39;6.28;;;3.25;;
51862;SDS011;37900;52.996;6.278;2022-09-09T04:26:32;3.83;;;2.83;;
51862;SDS011;37900;52.996;6.278;2022-09-09T04:28:58;4.13;;;2.67;;
51862;SDS011;37900;52.996;6.278;2022-09-09T04:31:24;4.85;;;3.17;;
51862;SDS011;37900;52.996;6.278;2022-09-09T04:33:49;3.38;;;2.67;;
51862;SDS011;37900;52.996;6.278;2022-09-09T04:36:16;4.90;;;3.20;;
51862;SDS011;37900;52.996;6.278;2022-09-09T04:38:44;5.53;;;3.10;;
51862;SDS011;37900;52.996;6.278;2022-09-09T04:41:10;5.93;;;3.15;;
51862;SDS011;37900;52.996;6.278;2022-09-09T04:43:37;4.90;;;2.93;;
51862;SDS011;37900;52.996;6.278;2022-09-09T04:46:04;4.13;;;2.78;;
51862;SDS011;37900;52.996;6.278;2022-09-09T04:48:30;4.13;;;2.53;;
51862;SDS011;37900;52.996;6.278;2022-09-09T04:51:03;3.78;;;2.90;;
51862;SDS011;37900;52.996;6.278;2022-09-09T04:53:31;3.83;;;2.63;;
51862;SDS011;37900;52.996;6.278;2022-09-09T04:56:03;4.38;;;3.00;;
51862;SDS011;37900;52.996;6.278;2022-09-09T04:58:30;3.83;;;2.67;;
51862;SDS011;37900;52.996;6.278;2022-09-09T05:01:16;3.13;;;2.58;;
51862;SDS011;37900;52.996;6.278;2022-09-09T05:03:43;4.35;;;2.70;;
51862;SDS011;37900;52.996;6.278;2022-09-09T05:06:14;3.88;;;2.95;;
51862;SDS011;37900;52.996;6.278;2022-09-09T05:08:41;4.05;;;3.40;;
51862;SDS011;37900;52.996;6.278;2022-09-09T05:13:41;3.80;;;2.80;;
51862;SDS011;37900;52.996;6.278;2022-09-09T05:16:07;3.13;;;2.65;;
51862;SDS011;37900;52.996;6.278;2022-09-09T05:18:36;4.93;;;2.90;;
51862;SDS011;37900;52.996;6.278;2022-09-09T05:21:05;3.72;;;2.53;;
51862;SDS011;37900;52.996;6.278;2022-09-09T05:23:32;4.47;;;2.85;;
51862;SDS011;37900;52.996;6.278;2022-09-09T05:26:02;3.38;;;2.65;;
51862;SDS011;37900;52.996;6.278;2022-09-09T05:28:29;3.63;;;3.13;;
51862;SDS011;37900;52.996;6.278;2022-09-09T05:31:05;4.22;;;2.80;;
51862;SDS011;37900;52.996;6.278;2022-09-09T05:33:38;4.25;;;2.63;;
51862;SDS011;37900;52.996;6.278;2022-09-09T05:36:12;4.00;;;3.00;;
51862;SDS011;37900;52.996;6.278;2022-09-09T05:38:40;4.45;;;2.38;;
51862;SDS011;37900;52.996;6.278;2022-09-09T05:41:06;3.30;;;2.37;;
51862;SDS011;37900;52.996;6.278;2022-09-09T05:43:33;2.80;;;2.30;;
51862;SDS011;37900;52.996;6.278;2022-09-09T05:46:14;3.45;;;2.40;;
51862;SDS011;37900;52.996;6.278;2022-09-09T05:48:41;3.58;;;2.60;;
51862;SDS011;37900;52.996;6.278;2022-09-09T05:51:09;3.65;;;2.22;;
51862;SDS011;37900;52.996;6.278;2022-09-09T05:53:42;3.92;;;2.40;;
51862;SDS011;37900;52.996;6.278;2022-09-09T05:56:19;3.05;;;2.30;;
51862;SDS011;37900;52.996;6.278;2022-09-09T05:58:48;3.58;;;2.28;;
51862;SDS011;37900;52.996;6.278;2022-09-09T06:01:18;3.58;;;2.60;;
51862;SDS011;37900;52.996;6.278;2022-09-09T06:03:46;3.13;;;2.65;;
51862;SDS011;37900;52.996;6.278;2022-09-09T06:06:17;3.90;;;2.50;;
51862;SDS011;37900;52.996;6.278;2022-09-09T06:08:47;3.13;;;2.30;;
51862;SDS011;37900;52.996;6.278;2022-09-09T06:11:17;3.55;;;2.40;;
51862;SDS011;37900;52.996;6.278;2022-09-09T06:13:47;3.30;;;2.65;;
51862;SDS011;37900;52.996;6.278;2022-09-09T06:16:16;3.28;;;2.40;;
51862;SDS011;37900;52.996;6.278;2022-09-09T06:18:44;3.13;;;2.50;;
51862;SDS011;37900;52.996;6.278;2022-09-09T06:23:55;4.43;;;2.28;;
51862;SDS011;37900;52.996;6.278;2022-09-09T06:31:17;3.53;;;2.30;;
51862;SDS011;37900;52.996;6.278;2022-09-09T06:33:46;4.07;;;2.63;;
51862;SDS011;37900;52.996;6.278;2022-09-09T06:36:18;3.22;;;2.15;;
51862;SDS011;37900;52.996;6.278;2022-09-09T06:38:46;3.28;;;2.40;;
51862;SDS011;37900;52.996;6.278;2022-09-09T06:41:12;2.55;;;2.28;;
51862;SDS011;37900;52.996;6.278;2022-09-09T06:43:40;4.00;;;2.13;;
51862;SDS011;37900;52.996;6.278;2022-09-09T06:46:08;3.85;;;2.40;;
51862;SDS011;37900;52.996;6.278;2022-09-09T06:48:35;3.28;;;2.63;;
51862;SDS011;37900;52.996;6.278;2022-09-09T06:51:05;6.18;;;2.30;;
51862;SDS011;37900;52.996;6.278;2022-09-09T06:53:36;4.85;;;2.63;;
51862;SDS011;37900;52.996;6.278;2022-09-09T06:58:52;5.03;;;2.67;;
51862;SDS011;37900;52.996;6.278;2022-09-09T07:01:23;3.75;;;2.60;;
51862;SDS011;37900;52.996;6.278;2022-09-09T07:03:52;3.28;;;2.45;;
51862;SDS011;37900;52.996;6.278;2022-09-09T07:06:23;4.18;;;2.55;;
51862;SDS011;37900;52.996;6.278;2022-09-09T07:08:54;9.65;;;2.70;;
51862;SDS011;37900;52.996;6.278;2022-09-09T07:11:23;3.58;;;2.17;;
51862;SDS011;37900;52.996;6.278;2022-09-09T07:13:52;4.70;;;2.53;;
51862;SDS011;37900;52.996;6.278;2022-09-09T07:16:18;3.95;;;2.25;;
51862;SDS011;37900;52.996;6.278;2022-09-09T07:18:46;5.82;;;2.55;;
51862;SDS011;37900;52.996;6.278;2022-09-09T07:21:12;4.43;;;2.42;;
51862;SDS011;37900;52.996;6.278;2022-09-09T07:23:39;7.68;;;4.40;;
51862;SDS011;37900;52.996;6.278;2022-09-09T07:26:13;5.35;;;3.35;;
51862;SDS011;37900;52.996;6.278;2022-09-09T07:28:46;7.18;;;3.70;;
51862;SDS011;37900;52.996;6.278;2022-09-09T07:31:14;4.32;;;2.78;;
51862;SDS011;37900;52.996;6.278;2022-09-09T07:33:41;4.85;;;2.97;;
51862;SDS011;37900;52.996;6.278;2022-09-09T07:36:09;5.57;;;2.90;;
51862;SDS011;37900;52.996;6.278;2022-09-09T07:38:46;4.50;;;2.50;;
51862;SDS011;37900;52.996;6.278;2022-09-09T07:41:18;4.50;;;2.70;;
51862;SDS011;37900;52.996;6.278;2022-09-09T07:43:46;4.95;;;2.50;;
51862;SDS011;37900;52.996;6.278;2022-09-09T07:48:43;4.30;;;2.60;;
51862;SDS011;37900;52.996;6.278;2022-09-09T07:51:18;5.82;;;3.42;;
51862;SDS011;37900;52.996;6.278;2022-09-09T07:53:47;4.65;;;3.22;;
51862;SDS011;37900;52.996;6.278;2022-09-09T07:56:16;5.20;;;3.15;;
51862;SDS011;37900;52.996;6.278;2022-09-09T07:58:46;4.80;;;3.13;;
51862;SDS011;37900;52.996;6.278;2022-09-09T08:01:16;4.43;;;2.53;;
51862;SDS011;37900;52.996;6.278;2022-09-09T08:03:52;5.38;;;2.45;;
51862;SDS011;37900;52.996;6.278;2022-09-09T08:06:19;4.35;;;2.75;;
51862;SDS011;37900;52.996;6.278;2022-09-09T08:08:49;4.63;;;2.60;;
51862;SDS011;37900;52.996;6.278;2022-09-09T08:11:15;4.18;;;2.67;;
51862;SDS011;37900;52.996;6.278;2022-09-09T08:13:42;3.47;;;2.30;;
51862;SDS011;37900;52.996;6.278;2022-09-09T08:16:12;4.53;;;2.60;;
51862;SDS011;37900;52.996;6.278;2022-09-09T08:18:40;4.30;;;2.33;;
51862;SDS011;37900;52.996;6.278;2022-09-09T08:21:13;6.25;;;2.45;;
51862;SDS011;37900;52.996;6.278;2022-09-09T08:23:42;3.20;;;2.20;;
51862;SDS011;37900;52.996;6.278;2022-09-09T08:26:11;3.42;;;2.15;;
51862;SDS011;37900;52.996;6.278;2022-09-09T08:28:40;3.10;;;2.25;;
51862;SDS011;37900;52.996;6.278;2022-09-09T08:31:10;3.75;;;2.08;;
51862;SDS011;37900;52.996;6.278;2022-09-09T08:33:41;3.55;;;2.30;;
51862;SDS011;37900;52.996;6.278;2022-09-09T08:36:12;3.67;;;2.00;;
51862;SDS011;37900;52.996;6.278;2022-09-09T08:38:48;4.10;;;2.50;;
51862;SDS011;37900;52.996;6.278;2022-09-09T08:41:39;3.15;;;2.20;;
51862;SDS011;37900;52.996;6.278;2022-09-09T08:46:31;4.50;;;2.40;;
51862;SDS011;37900;52.996;6.278;2022-09-09T08:49:15;4.82;;;2.78;;
51862;SDS011;37900;52.996;6.278;2022-09-09T08:51:52;4.20;;;2.40;;
51862;SDS011;37900;52.996;6.278;2022-09-09T08:54:21;2.78;;;2.08;;
51862;SDS011;37900;52.996;6.278;2022-09-09T08:56:47;3.00;;;2.13;;
51862;SDS011;37900;52.996;6.278;2022-09-09T08:59:16;5.95;;;1.95;;
51862;SDS011;37900;52.996;6.278;2022-09-09T09:01:52;4.82;;;1.88;;
51862;SDS011;37900;52.996;6.278;2022-09-09T09:12:27;3.28;;;1.77;;
51862;SDS011;37900;52.996;6.278;2022-09-09T09:14:58;2.97;;;1.50;;
51862;SDS011;37900;52.996;6.278;2022-09-09T09:17:25;5.47;;;2.30;;
51862;SDS011;37900;52.996;6.278;2022-09-09T09:19:56;4.35;;;1.70;;
51862;SDS011;37900;52.996;6.278;2022-09-09T09:22:28;5.32;;;1.90;;
51862;SDS011;37900;52.996;6.278;2022-09-09T09:25:13;3.40;;;1.67;;
51862;SDS011;37900;52.996;6.278;2022-09-09T09:30:38;7.55;;;2.00;;
51862;SDS011;37900;52.996;6.278;2022-09-09T09:35:49;3.60;;;1.80;;
51862;SDS011;37900;52.996;6.278;2022-09-09T09:38:22;5.75;;;2.28;;
51862;SDS011;37900;52.996;6.278;2022-09-09T09:40:54;3.65;;;1.70;;
51862;SDS011;37900;52.996;6.278;2022-09-09T09:43:32;2.60;;;1.38;;
51862;SDS011;37900;52.996;6.278;2022-09-09T09:46:16;3.92;;;1.85;;
51862;SDS011;37900;52.996;6.278;2022-09-09T09:51:28;4.55;;;2.22;;
51862;SDS011;37900;52.996;6.278;2022-09-09T09:56:43;4.32;;;1.80;;
51862;SDS011;37900;52.996;6.278;2022-09-09T10:01:54;4.38;;;2.13;;
51862;SDS011;37900;52.996;6.278;2022-09-09T10:04:31;7.43;;;2.35;;
51862;SDS011;37900;52.996;6.278;2022-09-09T10:06:58;8.95;;;2.25;;
51862;SDS011;37900;52.996;6.278;2022-09-09T10:09:34;5.55;;;2.17;;
51862;SDS011;37900;52.996;6.278;2022-09-09T10:17:59;5.07;;;3.00;;
51862;SDS011;37900;52.996;6.278;2022-09-09T10:23:06;7.65;;;3.20;;
51862;SDS011;37900;52.996;6.278;2022-09-09T10:34:58;5.00;;;2.42;;
51862;SDS011;37900;52.996;6.278;2022-09-09T10:55:39;4.25;;;1.88;;
51862;SDS011;37900;52.996;6.278;2022-09-09T10:58:09;3.78;;;2.03;;
51862;SDS011;37900;52.996;6.278;2022-09-09T11:00:43;8.68;;;2.40;;
51862;SDS011;37900;52.996;6.278;2022-09-09T11:03:21;3.88;;;2.10;;
51862;SDS011;37900;52.996;6.278;2022-09-09T11:05:55;5.10;;;1.80;;
51862;SDS011;37900;52.996;6.278;2022-09-09T11:08:26;4.55;;;2.00;;
51862;SDS011;37900;52.996;6.278;2022-09-09T11:16:23;6.13;;;2.47;;
51862;SDS011;37900;52.996;6.278;2022-09-09T11:19:19;4.53;;;1.77;;
51862;SDS011;37900;52.996;6.278;2022-09-09T11:22:05;5.28;;;1.88;;
51862;SDS011;37900;52.996;6.278;2022-09-09T11:27:35;3.78;;;1.90;;
51862;SDS011;37900;52.996;6.278;2022-09-09T11:35:57;5.55;;;2.17;;
51862;SDS011;37900;52.996;6.278;2022-09-09T11:38:46;4.80;;;2.10;;
51862;SDS011;37900;52.996;6.278;2022-09-09T11:41:16;3.35;;;1.75;;
51862;SDS011;37900;52.996;6.278;2022-09-09T11:43:49;4.88;;;1.85;;
51862;SDS011;37900;52.996;6.278;2022-09-09T11:46:18;4.35;;;1.73;;
51862;SDS011;37900;52.996;6.278;2022-09-09T11:49:02;4.63;;;1.67;;
51862;SDS011;37900;52.996;6.278;2022-09-09T11:51:30;3.85;;;2.00;;
51862;SDS011;37900;52.996;6.278;2022-09-09T11:56:32;4.22;;;2.03;;
51862;SDS011;37900;52.996;6.278;2022-09-09T11:59:16;4.50;;;1.83;;
51862;SDS011;37900;52.996;6.278;2022-09-09T12:01:49;8.38;;;1.95;;
51862;SDS011;37900;52.996;6.278;2022-09-09T12:14:43;5.18;;;2.05;;
51862;SDS011;37900;52.996;6.278;2022-09-09T12:17:20;7.75;;;2.17;;
51862;SDS011;37900;52.996;6.278;2022-09-09T12:19:48;4.38;;;1.48;;
51862;SDS011;37900;52.996;6.278;2022-09-09T12:22:39;2.78;;;1.30;;
51862;SDS011;37900;52.996;6.278;2022-09-09T12:28:20;2.85;;;1.38;;
51862;SDS011;37900;52.996;6.278;2022-09-09T12:33:47;6.10;;;1.67;;
51862;SDS011;37900;52.996;6.278;2022-09-09T12:36:31;2.58;;;1.42;;
51862;SDS011;37900;52.996;6.278;2022-09-09T12:38:59;3.30;;;1.73;;
51862;SDS011;37900;52.996;6.278;2022-09-09T12:41:39;2.42;;;1.50;;
51862;SDS011;37900;52.996;6.278;2022-09-09T12:44:09;7.18;;;1.70;;
51862;SDS011;37900;52.996;6.278;2022-09-09T12:46:41;4.13;;;1.52;;
51862;SDS011;37900;52.996;6.278;2022-09-09T12:51:59;2.88;;;1.75;;
51862;SDS011;37900;52.996;6.278;2022-09-09T12:54:28;3.70;;;1.63;;
51862;SDS011;37900;52.996;6.278;2022-09-09T12:56:54;3.20;;;1.80;;
51862;SDS011;37900;52.996;6.278;2022-09-09T12:59:24;4.25;;;1.88;;
51862;SDS011;37900;52.996;6.278;2022-09-09T13:01:55;4.85;;;1.70;;
51862;SDS011;37900;52.996;6.278;2022-09-09T13:04:24;3.00;;;1.52;;
51862;SDS011;37900;52.996;6.278;2022-09-09T13:06:50;1.92;;;1.40;;
51862;SDS011;37900;52.996;6.278;2022-09-09T13:09:17;4.30;;;1.75;;
51862;SDS011;37900;52.996;6.278;2022-09-09T13:11:45;5.13;;;1.77;;
51862;SDS011;37900;52.996;6.278;2022-09-09T13:14:15;4.82;;;1.83;;
51862;SDS011;37900;52.996;6.278;2022-09-09T13:17:04;3.72;;;1.55;;
51862;SDS011;37900;52.996;6.278;2022-09-09T13:19:35;4.88;;;1.55;;
51862;SDS011;37900;52.996;6.278;2022-09-09T13:22:12;2.35;;;1.38;;
51862;SDS011;37900;52.996;6.278;2022-09-09T13:24:44;3.40;;;1.30;;
51862;SDS011;37900;52.996;6.278;2022-09-09T13:27:24;3.90;;;2.03;;
51862;SDS011;37900;52.996;6.278;2022-09-09T13:29:54;3.65;;;1.92;;
51862;SDS011;37900;52.996;6.278;2022-09-09T13:32:21;3.08;;;1.75;;
51862;SDS011;37900;52.996;6.278;2022-09-09T13:34:59;3.58;;;1.60;;
51862;SDS011;37900;52.996;6.278;2022-09-09T13:37:36;5.40;;;1.40;;
51862;SDS011;37900;52.996;6.278;2022-09-09T13:40:04;4.78;;;1.95;;
51862;SDS011;37900;52.996;6.278;2022-09-09T13:42:32;2.10;;;1.33;;
51862;SDS011;37900;52.996;6.278;2022-09-09T13:45:00;2.03;;;1.27;;
51862;SDS011;37900;52.996;6.278;2022-09-09T13:47:29;3.35;;;1.75;;
51862;SDS011;37900;52.996;6.278;2022-09-09T13:52:48;3.17;;;1.27;;
51862;SDS011;37900;52.996;6.278;2022-09-09T13:55:16;5.63;;;1.60;;
51862;SDS011;37900;52.996;6.278;2022-09-09T14:00:40;2.15;;;1.30;;
51862;SDS011;37900;52.996;6.278;2022-09-09T14:03:06;3.50;;;1.52;;
51862;SDS011;37900;52.996;6.278;2022-09-09T14:05:33;2.08;;;1.20;;
51862;SDS011;37900;52.996;6.278;2022-09-09T14:07:59;3.00;;;2.00;;
51862;SDS011;37900;52.996;6.278;2022-09-09T14:10:28;2.08;;;1.02;;
51862;SDS011;37900;52.996;6.278;2022-09-09T14:12:53;4.30;;;1.45;;
51862;SDS011;37900;52.996;6.278;2022-09-09T14:15:19;4.05;;;1.63;;
51862;SDS011;37900;52.996;6.278;2022-09-09T14:17:45;2.67;;;1.60;;
51862;SDS011;37900;52.996;6.278;2022-09-09T14:20:11;5.10;;;1.60;;
51862;SDS011;37900;52.996;6.278;2022-09-09T14:22:40;3.95;;;1.70;;
51862;SDS011;37900;52.996;6.278;2022-09-09T14:25:06;4.28;;;1.52;;
51862;SDS011;37900;52.996;6.278;2022-09-09T14:27:32;5.80;;;1.77;;
51862;SDS011;37900;52.996;6.278;2022-09-09T14:29:58;5.15;;;1.65;;
51862;SDS011;37900;52.996;6.278;2022-09-09T14:32:25;3.65;;;1.40;;
51862;SDS011;37900;52.996;6.278;2022-09-09T14:34:52;2.42;;;1.30;;
51862;SDS011;37900;52.996;6.278;2022-09-09T14:37:18;4.70;;;1.77;;
51862;SDS011;37900;52.996;6.278;2022-09-09T14:39:43;4.18;;;1.60;;
51862;SDS011;37900;52.996;6.278;2022-09-09T14:42:10;4.00;;;1.10;;
51862;SDS011;37900;52.996;6.278;2022-09-09T14:44:36;4.43;;;1.33;;
51862;SDS011;37900;52.996;6.278;2022-09-09T14:49:35;5.90;;;1.50;;
51862;SDS011;37900;52.996;6.278;2022-09-09T14:52:02;3.10;;;1.45;;
51862;SDS011;37900;52.996;6.278;2022-09-09T14:54:28;3.72;;;1.40;;
51862;SDS011;37900;52.996;6.278;2022-09-09T14:56:55;2.65;;;1.15;;
51862;SDS011;37900;52.996;6.278;2022-09-09T15:01:47;2.97;;;1.33;;
51862;SDS011;37900;52.996;6.278;2022-09-09T15:04:13;2.95;;;1.27;;
51862;SDS011;37900;52.996;6.278;2022-09-09T15:06:39;4.10;;;1.42;;
51862;SDS011;37900;52.996;6.278;2022-09-09T15:09:07;1.65;;;1.00;;
51862;SDS011;37900;52.996;6.278;2022-09-09T15:11:34;2.20;;;1.20;;
51862;SDS011;37900;52.996;6.278;2022-09-09T15:14:05;2.95;;;1.27;;
51862;SDS011;37900;52.996;6.278;2022-09-09T15:16:32;3.75;;;1.30;;
51862;SDS011;37900;52.996;6.278;2022-09-09T15:18:59;5.35;;;1.40;;
51862;SDS011;37900;52.996;6.278;2022-09-09T15:21:35;4.00;;;1.70;;
51862;SDS011;37900;52.996;6.278;2022-09-09T15:24:02;2.13;;;1.20;;
51862;SDS011;37900;52.996;6.278;2022-09-09T15:26:29;3.60;;;1.13;;
51862;SDS011;37900;52.996;6.278;2022-09-09T15:28:55;4.90;;;1.40;;
51862;SDS011;37900;52.996;6.278;2022-09-09T15:31:26;2.45;;;1.30;;
51862;SDS011;37900;52.996;6.278;2022-09-09T15:33:55;4.63;;;1.58;;
51862;SDS011;37900;52.996;6.278;2022-09-09T15:36:26;5.65;;;1.65;;
51862;SDS011;37900;52.996;6.278;2022-09-09T15:38:53;3.55;;;1.10;;
51862;SDS011;37900;52.996;6.278;2022-09-09T15:41:20;4.00;;;1.33;;
51862;SDS011;37900;52.996;6.278;2022-09-09T15:43:48;4.25;;;1.27;;
51862;SDS011;37900;52.996;6.278;2022-09-09T15:48:58;3.20;;;1.35;;
51862;SDS011;37900;52.996;6.278;2022-09-09T15:51:31;2.10;;;1.10;;
51862;SDS011;37900;52.996;6.278;2022-09-09T15:53:58;4.75;;;1.30;;
51862;SDS011;37900;52.996;6.278;2022-09-09T15:56:25;2.83;;;1.05;;
51862;SDS011;37900;52.996;6.278;2022-09-09T15:58:52;2.22;;;1.15;;
51862;SDS011;37900;52.996;6.278;2022-09-09T16:01:18;2.85;;;1.20;;
51862;SDS011;37900;52.996;6.278;2022-09-09T16:03:44;3.42;;;1.08;;
51862;SDS011;37900;52.996;6.278;2022-09-09T16:06:12;3.22;;;1.20;;
51862;SDS011;37900;52.996;6.278;2022-09-09T16:08:41;1.92;;;1.20;;
51862;SDS011;37900;52.996;6.278;2022-09-09T16:11:10;2.80;;;1.45;;
51862;SDS011;37900;52.996;6.278;2022-09-09T16:13:41;4.95;;;1.35;;
51862;SDS011;37900;52.996;6.278;2022-09-09T16:16:09;6.75;;;1.40;;
51862;SDS011;37900;52.996;6.278;2022-09-09T16:18:38;2.38;;;0.98;;
51862;SDS011;37900;52.996;6.278;2022-09-09T16:21:05;4.18;;;1.13;;
51862;SDS011;37900;52.996;6.278;2022-09-09T16:23:33;5.22;;;1.15;;
51862;SDS011;37900;52.996;6.278;2022-09-09T16:26:00;3.78;;;1.20;;
51862;SDS011;37900;52.996;6.278;2022-09-09T16:28:26;1.70;;;1.05;;
51862;SDS011;37900;52.996;6.278;2022-09-09T16:30:52;1.77;;;1.20;;
51862;SDS011;37900;52.996;6.278;2022-09-09T16:33:18;5.38;;;1.30;;
51862;SDS011;37900;52.996;6.278;2022-09-09T16:35:44;1.77;;;1.08;;
51862;SDS011;37900;52.996;6.278;2022-09-09T16:38:10;3.13;;;0.95;;
51862;SDS011;37900;52.996;6.278;2022-09-09T16:40:37;2.30;;;1.08;;
51862;SDS011;37900;52.996;6.278;2022-09-09T16:43:03;2.78;;;1.63;;
51862;SDS011;37900;52.996;6.278;2022-09-09T16:47:57;2.35;;;0.93;;
51862;SDS011;37900;52.996;6.278;2022-09-09T16:50:24;2.20;;;1.23;;
51862;SDS011;37900;52.996;6.278;2022-09-09T16:52:51;2.33;;;1.02;;
51862;SDS011;37900;52.996;6.278;2022-09-09T16:57:45;5.25;;;1.23;;
51862;SDS011;37900;52.996;6.278;2022-09-09T17:00:15;2.50;;;1.38;;
51862;SDS011;37900;52.996;6.278;2022-09-09T17:02:42;3.03;;;1.20;;
51862;SDS011;37900;52.996;6.278;2022-09-09T17:05:08;2.58;;;1.13;;
51862;SDS011;37900;52.996;6.278;2022-09-09T17:07:34;1.90;;;1.17;;
51862;SDS011;37900;52.996;6.278;2022-09-09T17:10:01;2.80;;;1.20;;
51862;SDS011;37900;52.996;6.278;2022-09-09T17:12:26;2.03;;;0.93;;
51862;SDS011;37900;52.996;6.278;2022-09-09T17:14:52;2.05;;;0.90;;
51862;SDS011;37900;52.996;6.278;2022-09-09T17:17:20;2.40;;;1.08;;
51862;SDS011;37900;52.996;6.278;2022-09-09T17:19:46;4.63;;;1.08;;
51862;SDS011;37900;52.996;6.278;2022-09-09T17:22:12;5.10;;;1.05;;
51862;SDS011;37900;52.996;6.278;2022-09-09T17:24:38;1.70;;;1.00;;
51862;SDS011;37900;52.996;6.278;2022-09-09T17:27:05;4.45;;;1.60;;
51862;SDS011;37900;52.996;6.278;2022-09-09T17:29:31;3.75;;;1.25;;
51862;SDS011;37900;52.996;6.278;2022-09-09T17:31:57;2.00;;;0.82;;
51862;SDS011;37900;52.996;6.278;2022-09-09T17:34:23;4.10;;;1.10;;
51862;SDS011;37900;52.996;6.278;2022-09-09T17:36:50;2.15;;;1.02;;
51862;SDS011;37900;52.996;6.278;2022-09-09T17:39:15;4.40;;;1.08;;
51862;SDS011;37900;52.996;6.278;2022-09-09T17:41:41;4.93;;;1.48;;
51862;SDS011;37900;52.996;6.278;2022-09-09T17:44:07;1.83;;;0.98;;
51862;SDS011;37900;52.996;6.278;2022-09-09T17:46:35;2.92;;;1.25;;
51862;SDS011;37900;52.996;6.278;2022-09-09T17:49:04;2.35;;;1.30;;
51862;SDS011;37900;52.996;6.278;2022-09-09T17:51:32;3.83;;;1.23;;
51862;SDS011;37900;52.996;6.278;2022-09-09T17:54:00;2.72;;;1.20;;
51862;SDS011;37900;52.996;6.278;2022-09-09T17:56:27;1.92;;;1.30;;
51862;SDS011;37900;52.996;6.278;2022-09-09T17:58:55;5.53;;;1.10;;
51862;SDS011;37900;52.996;6.278;2022-09-09T18:01:26;6.55;;;1.25;;
51862;SDS011;37900;52.996;6.278;2022-09-09T18:03:54;1.55;;;1.20;;
51862;SDS011;37900;52.996;6.278;2022-09-09T18:06:24;3.33;;;1.58;;
51862;SDS011;37900;52.996;6.278;2022-09-09T18:08:58;3.63;;;1.10;;